createdAt,value
2018-06-09T00:04:02.910Z,5.42
2018-06-09T00:09:57.888Z,4.65
2018-06-09T00:15:52.710Z,5.07
2018-06-09T00:21:47.827Z,4.66
2018-06-09T00:27:42.671Z,4.37
2018-06-09T00:33:37.721Z,4.5
2018-06-09T00:39:32.696Z,4.45
2018-06-09T00:45:27.701Z,4.25
2018-06-09T00:51:22.724Z,4.52
2018-06-09T00:57:17.712Z,4.51
2018-06-09T01:03:12.743Z,3.75
2018-06-09T01:09:07.729Z,3.81
2018-06-09T01:15:03.473Z,4.23
2018-06-09T01:20:57.722Z,4.08
2018-06-09T01:26:52.696Z,4.93
2018-06-09T01:32:47.721Z,4.79
2018-06-09T01:38:42.731Z,5.33
2018-06-09T01:44:37.740Z,5.26
2018-06-09T01:52:38.617Z,5.15
2018-06-09T01:56:27.702Z,6.03
2018-06-09T02:02:22.739Z,5.63
2018-06-09T02:08:17.698Z,5.36
2018-06-09T02:14:12.710Z,4.7
2018-06-09T02:20:08.280Z,3.72
2018-06-09T02:26:02.910Z,3.92
2018-06-09T02:31:57.766Z,3.67
2018-06-09T02:37:52.710Z,3.75
2018-06-09T02:43:47.709Z,4.19
2018-06-09T02:49:42.772Z,4.58
2018-06-09T02:55:37.706Z,4.1
2018-06-09T03:01:32.770Z,4.3
2018-06-09T03:07:27.767Z,4.22
2018-06-09T03:13:22.784Z,4.71
2018-06-09T03:19:17.746Z,4.67
2018-06-09T03:25:12.758Z,5.36
2018-06-09T03:31:07.780Z,5.25
2018-06-09T03:37:02.856Z,5.27
2018-06-09T03:42:57.745Z,5.74
2018-06-09T03:48:52.833Z,5.44
2018-06-09T03:54:47.775Z,5.35
2018-06-09T04:00:42.788Z,9.29
2018-06-09T04:06:37.765Z,6.28
2018-06-09T04:12:32.765Z,6.92
2018-06-09T04:18:35.555Z,4.79
2018-06-09T04:24:22.817Z,4.13
2018-06-09T04:30:17.768Z,3.97
2018-06-09T04:36:12.963Z,3.66
2018-06-09T04:42:07.817Z,3.65
2018-06-09T04:48:02.833Z,3.62
2018-06-09T04:53:57.769Z,3.71
2018-06-09T04:59:52.774Z,3.22
2018-06-09T05:05:47.775Z,4.07
2018-06-09T05:11:42.773Z,4.03
2018-06-09T05:17:37.815Z,3.64
2018-06-09T05:23:32.819Z,3.22
2018-06-09T05:29:27.770Z,4.71
2018-06-09T05:35:22.774Z,4
2018-06-09T05:41:17.788Z,5.17
2018-06-09T05:47:12.788Z,5.37
2018-06-09T05:53:07.796Z,4.99
2018-06-09T05:59:02.801Z,4.42
2018-06-09T06:04:57.835Z,3.31
2018-06-09T06:10:52.791Z,3.7
2018-06-09T06:16:47.792Z,3.22
2018-06-09T06:22:42.808Z,3.1
2018-06-09T06:28:37.793Z,3.63
2018-06-09T06:34:32.909Z,3.2
2018-06-09T06:40:27.822Z,3.53
2018-06-09T06:46:22.799Z,3.34
2018-06-09T06:52:18.026Z,3.22
2018-06-09T06:58:12.854Z,2.72
2018-06-09T07:04:07.824Z,3.9
2018-06-09T07:10:02.843Z,3.17
2018-06-09T07:15:57.799Z,3.02
2018-06-09T07:21:52.822Z,3.09
2018-06-09T07:27:47.832Z,3.13
2018-06-09T07:33:42.881Z,3.12
2018-06-09T07:39:37.826Z,3.66
2018-06-09T07:45:32.951Z,3.24
2018-06-09T07:51:27.859Z,3.19
2018-06-09T07:57:22.891Z,3.03
2018-06-09T08:03:17.822Z,3.03
2018-06-09T08:09:12.880Z,3.13
2018-06-09T08:15:07.823Z,3.86
2018-06-09T08:21:02.834Z,3.24
2018-06-09T08:26:57.844Z,2.83
2018-06-09T08:32:52.870Z,2.62
2018-06-09T08:38:47.864Z,2.43
2018-06-09T08:44:42.865Z,2.3
2018-06-09T08:50:37.850Z,2.92
2018-06-09T08:56:32.890Z,2.18
2018-06-09T09:02:27.866Z,2.49
2018-06-09T09:08:22.864Z,2.75
2018-06-09T09:14:17.872Z,2.85
2018-06-09T09:20:13.017Z,3.76
2018-06-09T09:26:07.898Z,3.72
2018-06-09T09:32:02.897Z,3.76
2018-06-09T09:37:57.878Z,6.54
2018-06-09T09:43:52.854Z,3.4
2018-06-09T09:49:47.925Z,2.92
2018-06-09T09:55:42.887Z,3.58
2018-06-09T10:01:37.890Z,3.22
2018-06-09T10:07:32.881Z,2.94
2018-06-09T10:13:27.943Z,3.05
2018-06-09T10:19:22.893Z,2.83
2018-06-09T10:25:17.903Z,2.41
2018-06-09T10:31:12.863Z,2.73
2018-06-09T10:37:18.902Z,2.75
2018-06-09T10:43:02.897Z,2.57
2018-06-09T10:48:57.947Z,2.9
2018-06-09T10:54:52.908Z,2.73
2018-06-09T11:00:47.940Z,2.83
2018-06-09T11:06:42.914Z,2.91
2018-06-09T11:12:37.978Z,2.94
2018-06-09T11:18:32.886Z,2.22
2018-06-09T11:24:27.947Z,2.69
2018-06-09T11:30:30.016Z,2.48
2018-06-09T11:36:17.910Z,2.57
2018-06-09T11:42:12.925Z,2.45
2018-06-09T11:48:07.919Z,2.29
2018-06-09T11:54:03.048Z,1.86
2018-06-09T11:59:57.981Z,1.95
2018-06-09T12:05:52.941Z,1.87
2018-06-09T12:11:47.925Z,2.38
2018-06-09T12:17:42.952Z,2.5
2018-06-09T12:23:37.939Z,2.3
2018-06-09T12:29:32.973Z,1.66
2018-06-09T12:35:27.928Z,3.28
2018-06-09T12:41:22.984Z,1.74
2018-06-09T12:47:17.951Z,1.7
2018-06-09T12:53:12.917Z,3.57
2018-06-09T12:59:08.015Z,2.43
2018-06-09T13:05:03.932Z,1.86
2018-06-09T13:10:57.989Z,1.57
2018-06-09T13:16:52.962Z,2.31
2018-06-09T13:22:47.978Z,1.71
2018-06-09T13:28:42.994Z,1.88
2018-06-09T13:34:38.181Z,1.76
2018-06-09T13:40:33.069Z,3.84
2018-06-09T13:46:27.979Z,1.85
2018-06-09T13:52:22.962Z,1.7
2018-06-09T13:58:18.021Z,1.58
2018-06-09T14:04:13.033Z,2.1
2018-06-09T14:10:08.019Z,1.75
2018-06-09T14:16:03.216Z,1.76
2018-06-09T14:21:58.266Z,1.74
2018-06-09T14:27:52.955Z,1.69
2018-06-09T14:33:48.466Z,2.08
2018-06-09T14:39:43.039Z,1.58
2018-06-09T14:45:38.011Z,1.65
2018-06-09T14:51:32.967Z,2.12
2018-06-09T14:57:27.958Z,1.44
2018-06-09T15:03:23.028Z,1.72
2018-06-09T15:09:18.033Z,1.47
2018-06-09T15:15:13.584Z,1.7
2018-06-09T15:21:08.045Z,1.14
2018-06-09T15:27:02.990Z,1.14
2018-06-09T15:32:58.054Z,1.72
2018-06-09T15:38:53.029Z,1.38
2018-06-09T15:44:48.022Z,1.28
2018-06-09T15:50:43.028Z,1.63
2018-06-09T15:56:38.046Z,1.41
2018-06-09T16:02:33.009Z,1.46
2018-06-09T16:08:28.011Z,1.48
2018-06-09T16:14:23.119Z,1.53
2018-06-09T16:20:17.998Z,1.39
2018-06-09T16:26:13.026Z,2.45
2018-06-09T16:32:08.024Z,1.59
2018-06-09T16:38:03.101Z,1.62
2018-06-09T16:43:58.037Z,1.4
2018-06-09T16:49:53.069Z,1.82
2018-06-09T16:55:48.021Z,1.75
2018-06-09T17:01:43.030Z,1.76
2018-06-09T17:07:38.039Z,1.94
2018-06-09T17:13:33.089Z,1.68
2018-06-09T17:19:28.020Z,1.6
2018-06-09T17:25:23.052Z,1.76
2018-06-09T17:31:18.073Z,1.75
2018-06-09T17:37:13.054Z,1.74
2018-06-09T17:43:08.055Z,1.85
2018-06-09T17:49:03.034Z,1.75
2018-06-09T17:54:58.089Z,1.66
2018-06-09T18:00:53.067Z,2.25
2018-06-09T18:06:48.068Z,1.77
2018-06-09T18:12:43.039Z,1.61
2018-06-09T18:18:38.059Z,1.97
2018-06-09T18:24:33.046Z,2.14
2018-06-09T18:30:28.060Z,1.94
2018-06-09T18:36:23.104Z,2.05
2018-06-09T18:42:18.092Z,1.96
2018-06-09T18:48:13.120Z,1.83
2018-06-09T18:54:08.128Z,1.88
2018-06-09T19:00:04.184Z,1.63
2018-06-09T19:05:58.080Z,1.96
2018-06-09T19:11:53.443Z,2.3
2018-06-09T19:17:48.099Z,2.07
2018-06-09T19:23:43.106Z,1.81
2018-06-09T19:29:38.071Z,1.53
2018-06-09T19:35:34.679Z,2
2018-06-09T19:41:28.072Z,2.49
2018-06-09T19:47:23.097Z,1.94
2018-06-09T19:53:18.152Z,1.87
2018-06-09T19:59:13.134Z,2.42
2018-06-09T20:05:08.099Z,2.37
2018-06-09T20:11:03.133Z,2.28
2018-06-09T20:16:58.108Z,1.96
2018-06-09T20:22:53.146Z,2.34
2018-06-09T20:28:48.095Z,2.33
2018-06-09T20:34:43.113Z,2.29
2018-06-09T20:40:38.183Z,2.16
2018-06-09T20:46:33.112Z,1.85
2018-06-09T20:52:28.130Z,2.57
2018-06-09T20:58:23.112Z,2.35
2018-06-09T21:04:18.115Z,2.18
2018-06-09T21:10:13.141Z,3.06
2018-06-09T21:16:08.183Z,2.6
2018-06-09T21:22:03.121Z,2.32
2018-06-09T21:27:58.179Z,2.35
2018-06-09T21:33:53.112Z,2.65
2018-06-09T21:39:48.175Z,2.54
2018-06-09T21:45:43.176Z,2.42
2018-06-09T21:51:38.158Z,2.47
2018-06-09T21:57:33.173Z,2.75
2018-06-09T22:03:28.203Z,2.86
2018-06-09T22:09:23.153Z,2.66
2018-06-09T22:15:18.143Z,2.68
2018-06-09T22:21:13.151Z,2.15
2018-06-09T22:27:08.161Z,2.78
2018-06-09T22:33:03.159Z,2.75
2018-06-09T22:38:58.156Z,2.31
2018-06-09T22:44:53.147Z,2.09
2018-06-09T22:50:48.160Z,2.67
2018-06-09T22:56:43.193Z,2.7
2018-06-09T23:02:38.192Z,2.69
2018-06-09T23:08:33.235Z,2.71
2018-06-09T23:14:28.173Z,2.5
2018-06-09T23:20:23.268Z,2.35
2018-06-09T23:26:18.167Z,2.74
2018-06-09T23:32:13.237Z,2.81
2018-06-09T23:38:08.210Z,2.92
2018-06-09T23:44:03.177Z,2.85
2018-06-09T23:49:58.173Z,2.63
2018-06-09T23:55:53.213Z,2.88
